Eveleth, MN (55734)

3:10 PM CST on February 14, 2016 (GMT -0600)
UTAC Thunderbird Mine | | Change Station
CLOSE
Current Station
Personal Weather Station
Location: Eveleth, MN
Elevation: 1621 ft
Nearby Weather Stations

Elev 1621 ft 47.48 °N, 92.54 °W | Updated 6 minutes ago

Light Snow
Light Snow
11.3 °F
Feels Like 1 °F
N
7.0
Wind Variable Wind from South
Gusts 19.0 mph

Today
High -- | Low -- °F
--% Chance of Precip.
Yesterday
High -- | Low -- °F
Precip. -- in
Pressure 29.86 in
Visibility 4.0 miles
Clouds Overcast 800 ft
Windchill 1 °F
Dew Point 7 °F
Humidity 84%
Rainfall 0.00 in
Snow Depth Not available.
7:17 AM 5:31 PM
Waxing Crescent, 45% visible
METAR KEVM 142054Z AUTO 15008KT 4SM -SN OVC008 M10/M13 A2986 RMK AO2
Pressure 29.86 in
Visibility 4.0 miles
Clouds Overcast 800 ft
Windchill 1 °F
Dew Point 7 °F
Humidity 84%
Rainfall 0.00 in
Snow Depth Not available.
7:17 AM 5:31 PM
Waxing Crescent, 45% visible
METAR KEVM 142054Z AUTO 15008KT 4SM -SN OVC008 M10/M13 A2986 RMK AO2

10-Day Weather Forecast

Almanac

Astronomy

Feb. 14, 2016 Rise Set
Actual Time
Civil Twilight
Nautical Twilight
Astronomical Twilight
Moon
Length of Visible Light
Length of Day
Tomorrow will be .
, % of the Moon is Illuminated

Today's Extremes

State Highs State Lows

Community

WunderPhotos

Upload Photos

1,892,885 photos uploaded!

WunderBlog® & News

Nearby

Air Quality

  Air Quality AQ Index Pollutant
Not available.

Snow Depth

Station Depth Elevation

Earthquake Activity

City Distance Mag. Time & Date
Minimum magnitude displayed is 2.5.

Coastal Water Temperatures

Place Temperature

Stations

Nearby Weather Stations

Station Location Temp. Windchill Dew Point Humidity Wind Precip. Elev Updated Type
                   

Watches & Warnings

There are currently no watches in effect.